Time;durP1;ratioP1;P1;durP2;ratioP2;P2;SDS_P1;SDS_P2;PMS_P1;PMS_P2;Temp;Humidity;BMP_temperature;BMP_pressure;BME280_temperature;BME280_humidity;BME280_pressure;Samples;Min_cycle;Max_cycle;Signal;HPM_P1;HPM_P2
2022/04/16 00:01:26;;;;;;;3.80;2.08;;;;;;;7.32;37.77;100421.28;5017250;28;20129;-55
2022/04/16 00:04:00;;;;;;;17.02;2.83;;;;;;;7.27;37.80;100412.63;5028154;28;20058;-56
2022/04/16 00:06:31;;;;;;;3.38;1.80;;;;;;;7.47;37.40;100417.78;5037756;28;20049;-54
2022/04/16 00:09:02;;;;;;;5.68;2.60;;;;;;;7.65;38.36;100416.03;5037419;28;20053;-54
2022/04/16 00:11:33;;;;;;;7.40;2.00;;;;;;;7.87;38.77;100419.44;5037604;28;20046;-55
2022/04/16 00:14:04;;;;;;;19.63;2.33;;;;;;;8.04;38.47;100407.25;5037859;28;20052;-54
2022/04/16 00:16:36;;;;;;;7.90;2.22;;;;;;;8.05;37.81;100403.75;5038024;28;20108;-55
2022/04/16 00:19:11;;;;;;;10.45;2.42;;;;;;;8.09;38.41;100400.28;5037932;28;20121;-55
2022/04/16 00:21:42;;;;;;;10.82;2.67;;;;;;;8.12;38.04;100405.47;5037795;28;20068;-56
2022/04/16 00:24:13;;;;;;;5.47;2.78;;;;;;;8.07;38.23;100402.03;5037677;28;20053;-53
2022/04/16 00:26:46;;;;;;;31.63;5.22;;;;;;;8.12;38.30;100400.28;5037295;28;20061;-55
2022/04/16 00:29:17;;;;;;;15.43;3.90;;;;;;;8.26;38.74;100404.53;5037387;28;20087;-56
2022/04/16 00:31:49;;;;;;;25.83;5.18;;;;;;;8.29;38.58;100396.75;5037358;28;20573;-55
2022/04/16 00:34:21;;;;;;;13.20;4.25;;;;;;;8.31;38.41;100394.97;5037341;28;20377;-54
2022/04/16 00:36:52;;;;;;;10.00;4.38;;;;;;;8.39;38.28;100398.44;5037410;28;20053;-55
2022/04/16 00:39:23;;;;;;;15.05;4.40;;;;;;;8.40;38.62;100400.19;5037017;28;20316;-56
2022/04/16 00:41:54;;;;;;;15.02;4.13;;;;;;;8.37;38.60;100397.56;5037117;28;20075;-54
2022/04/16 00:44:25;;;;;;;12.95;4.00;;;;;;;8.53;38.99;100391.41;5033964;28;20069;-54
2022/04/16 00:46:56;;;;;;;11.98;4.30;;;;;;;8.64;38.59;100391.38;5016600;28;20054;-55
2022/04/16 00:49:29;;;;;;;7.55;2.97;;;;;;;8.72;39.12;100365.25;5016307;28;20096;-54
2022/04/16 00:52:00;;;;;;;9.98;3.42;;;;;;;8.86;37.94;100376.41;5016220;28;20054;-55
2022/04/16 00:54:32;;;;;;;10.25;2.70;;;;;;;8.76;38.13;100377.38;5016279;28;20096;-54
2022/04/16 00:57:03;;;;;;;19.90;4.05;;;;;;;8.91;38.86;100372.06;5016498;28;20499;-55
2022/04/16 00:59:33;;;;;;;6.72;3.58;;;;;;;8.93;39.20;100374.66;5017495;28;20116;-56
2022/04/16 01:02:04;;;;;;;5.88;2.83;;;;;;;8.94;38.87;100372.03;5017320;28;20062;-53
2022/04/16 01:04:37;;;;;;;14.70;3.60;;;;;;;9.08;39.53;100364.09;5017394;28;20103;-54
2022/04/16 01:07:08;;;;;;;20.15;3.78;;;;;;;9.06;38.20;100356.31;5016767;28;20050;-54
2022/04/16 01:09:39;;;;;;;10.02;2.97;;;;;;;9.00;37.17;100345.91;5015174;28;20089;-55
2022/04/16 01:12:11;;;;;;;12.18;3.38;;;;;;;8.96;37.62;100352.03;5015770;28;20313;-56
2022/04/16 01:14:42;;;;;;;8.65;3.13;;;;;;;8.93;37.35;100349.44;5014246;28;20049;-54
2022/04/16 01:17:13;;;;;;;7.82;3.17;;;;;;;8.83;37.90;100326.94;5013487;28;20065;-52
2022/04/16 01:19:47;;;;;;;8.65;3.13;;;;;;;9.04;38.94;100342.41;5016502;28;20340;-54
2022/04/16 01:22:20;;;;;;;7.15;3.00;;;;;;;9.06;37.45;100330.22;5015292;28;20113;-52
2022/04/16 01:24:52;;;;;;;11.73;2.85;;;;;;;8.98;37.46;100329.41;5017274;28;20089;-53
2022/04/16 01:27:24;;;;;;;30.10;3.20;;;;;;;9.03;37.39;100327.63;5016369;28;20113;-54
2022/04/16 01:29:55;;;;;;;4.13;2.38;;;;;;;9.09;37.86;100328.47;5015914;28;20062;-54
2022/04/16 01:32:27;;;;;;;19.50;3.30;;;;;;;8.98;37.55;100313.78;5016814;28;20359;-55
2022/04/16 01:34:58;;;;;;;20.83;3.45;;;;;;;9.00;37.91;100319.00;5016851;28;20072;-55
2022/04/16 01:37:33;;;;;;;10.15;2.38;;;;;;;8.96;37.67;100307.75;5015999;28;20105;-54
2022/04/16 01:40:08;;;;;;;10.88;3.78;;;;;;;8.92;37.36;100311.25;5016060;28;20065;-51
2022/04/16 01:42:39;;;;;;;4.80;2.63;;;;;;;8.93;38.26;100307.75;5015900;28;20042;-53
2022/04/16 01:45:11;;;;;;;8.48;2.45;;;;;;;9.01;37.86;100295.53;5017091;28;20053;-55
2022/04/16 01:47:42;;;;;;;16.20;3.72;;;;;;;9.02;37.40;100297.25;5016831;28;20068;-54
2022/04/16 01:50:13;;;;;;;5.40;2.30;;;;;;;9.13;37.20;100293.66;5016695;28;20409;-54
2022/04/16 01:52:45;;;;;;;7.55;2.70;;;;;;;9.22;37.76;100284.00;5016593;28;20046;-54
2022/04/16 01:55:17;;;;;;;5.22;2.83;;;;;;;9.23;37.25;100283.13;5016814;28;20053;-53
2022/04/16 01:57:49;;;;;;;4.13;2.72;;;;;;;9.28;37.90;100277.88;5016607;28;20355;-53
2022/04/16 02:00:20;;;;;;;8.60;2.70;;;;;;;9.21;37.22;100270.97;5016727;28;20088;-52
2022/04/16 02:02:51;;;;;;;7.55;2.50;;;;;;;9.10;36.53;100267.63;5016561;28;20100;-53
2022/04/16 02:05:22;;;;;;;5.10;2.42;;;;;;;9.02;36.84;100258.16;5016693;28;20058;-54
2022/04/16 02:07:54;;;;;;;4.68;2.33;;;;;;;8.98;37.16;100253.84;5016462;28;20109;-53
2022/04/16 02:10:26;;;;;;;33.83;4.55;;;;;;;8.96;36.70;100241.69;5016490;28;20088;-53
2022/04/16 02:12:57;;;;;;;7.22;2.30;;;;;;;9.06;36.76;100249.44;5016109;28;20058;-53
2022/04/16 02:15:28;;;;;;;8.95;2.10;;;;;;;9.08;36.57;100249.41;5016359;28;20089;-53
2022/04/16 02:17:59;;;;;;;39.05;3.45;;;;;;;9.15;37.00;100248.47;5016237;28;20045;-52
2022/04/16 02:20:29;;;;;;;6.57;2.63;;;;;;;9.20;37.71;100245.81;5016425;28;20088;-51
2022/04/16 02:23:00;;;;;;;4.63;2.15;;;;;;;9.06;37.19;100231.19;5016330;28;20089;-55
2022/04/16 02:25:33;;;;;;;5.63;2.25;;;;;;;8.92;37.84;100201.78;5016264;28;20264;-53
2022/04/16 02:28:03;;;;;;;24.00;4.07;;;;;;;9.22;37.31;100231.00;5019950;28;20049;-55
2022/04/16 02:30:35;;;;;;;5.60;2.53;;;;;;;9.27;37.09;100234.44;5019884;28;20125;-51
2022/04/16 02:33:06;;;;;;;4.95;2.40;;;;;;;9.20;36.18;100237.97;5019811;28;20056;-52
2022/04/16 02:35:38;;;;;;;6.65;2.35;;;;;;;9.07;36.67;100237.25;5021816;28;20116;-49
2022/04/16 02:38:09;;;;;;;5.65;2.50;;;;;;;9.09;37.11;100232.03;5017430;28;20131;-52
2022/04/16 02:40:42;;;;;;;6.95;2.67;;;;;;;9.25;37.43;100225.75;5016857;28;20581;-54
2022/04/16 02:43:12;;;;;;;4.03;2.25;;;;;;;9.29;36.68;100227.47;5018717;28;20339;-54
2022/04/16 02:48:30;;;;;;;8.48;2.60;;;;;;;9.23;36.28;100214.47;5016811;28;20669;-53
2022/04/16 02:51:02;;;;;;;3.90;2.17;;;;;;;9.28;36.69;100220.50;5019579;28;20057;-54
2022/04/16 02:53:33;;;;;;;4.45;2.33;;;;;;;9.27;37.23;100213.56;5019156;28;20133;-54
2022/04/16 02:56:05;;;;;;;8.13;2.70;;;;;;;9.20;36.60;100206.69;5018752;28;20061;-56
2022/04/16 02:58:37;;;;;;;34.88;3.60;;;;;;;9.25;36.74;100204.91;5023974;28;20096;-55
2022/04/16 03:01:07;;;;;;;6.72;2.20;;;;;;;9.18;36.64;100208.44;5025329;28;20049;-52
2022/04/16 03:03:38;;;;;;;2.58;1.98;;;;;;;9.16;36.37;100199.78;5025344;28;20054;-53
2022/04/16 03:06:09;;;;;;;7.68;2.20;;;;;;;9.08;37.12;100199.88;5025195;28;20050;-51
2022/04/16 03:08:40;;;;;;;18.55;2.83;;;;;;;9.10;37.02;100192.03;5025593;28;20339;-53
2022/04/16 03:11:12;;;;;;;5.43;2.70;;;;;;;9.24;37.81;100203.19;5025341;28;20050;-52
2022/04/16 03:13:43;;;;;;;8.23;2.70;;;;;;;9.33;37.62;100197.84;5024781;28;20893;-54
2022/04/16 03:19:02;;;;;;;7.45;2.60;;;;;;;9.60;37.36;100185.34;5024965;28;20041;-52
2022/04/16 03:21:34;;;;;;;6.60;2.42;;;;;;;9.62;37.13;100186.19;5026003;28;20045;-52
2022/04/16 03:24:05;;;;;;;6.13;2.63;;;;;;;9.66;36.81;100185.22;5025307;28;20068;-55
2022/04/16 03:26:38;;;;;;;32.38;3.05;;;;;;;9.73;36.79;100176.44;5025358;28;20062;-54
2022/04/16 03:29:10;;;;;;;8.30;2.22;;;;;;;9.71;36.53;100173.00;5026920;28;20066;-52
2022/04/16 03:31:41;;;;;;;23.58;3.38;;;;;;;9.69;35.67;100169.56;5025551;28;20053;-53
2022/04/16 03:34:12;;;;;;;7.95;2.15;;;;;;;9.48;35.00;100166.38;5025013;28;20394;-54
2022/04/16 03:36:43;;;;;;;6.05;2.35;;;;;;;9.56;35.64;100170.59;5024907;28;20641;-54
2022/04/16 03:39:15;;;;;;;7.05;2.58;;;;;;;9.76;36.16;100160.75;5022895;28;20139;-54
2022/04/16 03:41:48;;;;;;;7.60;2.30;;;;;;;9.70;35.72;100163.44;5024772;28;20106;-52
2022/04/16 03:44:19;;;;;;;8.68;2.45;;;;;;;9.71;34.80;100167.78;5025092;28;20425;-53
2022/04/16 03:46:50;;;;;;;4.85;2.00;;;;;;;9.63;35.45;100160.03;5024890;28;20081;-54
2022/04/16 03:49:22;;;;;;;6.15;2.33;;;;;;;9.56;34.56;100157.56;5024134;28;20854;-52
2022/04/16 03:51:53;;;;;;;7.75;2.42;;;;;;;9.51;33.77;100160.25;5024782;28;20260;-53
2022/04/16 04:00:03;;;;;;;9.90;2.72;;;;;;;9.72;35.07;100143.41;5023362;28;20087;-52
2022/04/16 04:02:36;;;;;;;6.78;2.30;;;;;;;9.74;35.64;100146.88;5022880;28;20340;-53
2022/04/16 04:05:08;;;;;;;3.38;2.00;;;;;;;9.69;34.89;100153.91;5023552;28;20049;-52
2022/04/16 04:07:40;;;;;;;4.43;2.55;;;;;;;9.70;34.40;100150.41;5024095;28;20412;-54
2022/04/16 04:10:13;;;;;;;6.15;2.15;;;;;;;9.80;33.77;100151.13;5023614;28;20084;-54
2022/04/16 04:12:46;;;;;;;23.02;3.70;;;;;;;9.70;33.72;100139.97;5022495;28;20053;-53
2022/04/16 04:15:17;;;;;;;12.88;2.72;;;;;;;9.59;34.11;100136.66;5022734;28;20050;-53
2022/04/16 04:17:49;;;;;;;32.17;3.30;;;;;;;9.60;34.62;100133.16;5022811;28;20343;-53
2022/04/16 04:20:20;;;;;;;19.63;2.85;;;;;;;9.70;34.41;100129.53;5022655;28;20679;-53
2022/04/16 04:22:51;;;;;;;5.40;1.98;;;;;;;9.76;34.70;100128.56;5023131;28;20081;-54
2022/04/16 04:25:23;;;;;;;17.35;7.03;;;;;;;9.83;34.41;100122.38;5021824;28;20063;-53
2022/04/16 04:27:56;;;;;;;6.22;2.60;;;;;;;9.83;34.00;100124.97;5023289;28;20706;-52
2022/04/16 04:30:27;;;;;;;6.55;2.10;;;;;;;9.80;34.65;100115.44;5023931;28;20244;-53
2022/04/16 04:32:58;;;;;;;5.22;2.60;;;;;;;9.80;34.29;100115.44;5023263;28;20049;-52
2022/04/16 04:35:29;;;;;;;22.65;3.50;;;;;;;9.83;33.77;100115.41;5022440;28;20076;-52
2022/04/16 04:38:00;;;;;;;12.38;2.30;;;;;;;9.83;33.82;100110.19;5017912;28;20064;-53
2022/04/16 04:40:31;;;;;;;13.30;2.10;;;;;;;9.70;33.76;100108.66;5023211;28;20584;-52
2022/04/16 04:43:04;;;;;;;4.05;2.00;;;;;;;9.56;33.84;100110.59;5022986;28;20053;-52
2022/04/16 04:45:36;;;;;;;4.78;2.10;;;;;;;9.56;34.14;100110.59;5023495;28;20045;-52
2022/04/16 04:48:07;;;;;;;6.25;2.10;;;;;;;9.66;34.16;100101.75;5023859;28;20055;-54
2022/04/16 04:50:38;;;;;;;4.95;2.10;;;;;;;9.52;33.58;100093.28;5023338;28;20050;-53
2022/04/16 04:53:10;;;;;;;8.48;2.47;;;;;;;9.57;33.41;100094.09;5023891;28;20088;-52
2022/04/16 04:55:41;;;;;;;7.22;1.83;;;;;;;9.65;34.06;100089.59;5023730;28;20123;-53
2022/04/16 04:58:14;;;;;;;20.35;2.78;;;;;;;9.67;34.83;100099.13;5023509;28;20082;-53
2022/04/16 05:00:51;;;;;;;5.60;2.17;;;;;;;9.57;34.44;100081.91;5023279;28;20080;-53
2022/04/16 05:03:22;;;;;;;5.95;2.05;;;;;;;9.59;34.42;100084.50;5022419;28;20139;-52
2022/04/16 05:05:53;;;;;;;30.67;3.80;;;;;;;9.54;34.94;100076.72;5022835;28;20078;-51
2022/04/16 05:08:24;;;;;;;15.95;2.60;;;;;;;9.46;34.06;100074.25;5022074;28;20038;-53
2022/04/16 05:10:55;;;;;;;12.82;4.75;;;;;;;9.40;34.48;100079.53;5022054;28;20256;-53
2022/04/16 05:13:28;;;;;;;29.90;5.25;;;;;;;9.39;34.29;100075.22;5022889;28;20053;-51
2022/04/16 05:15:59;;;;;;;10.15;3.28;;;;;;;9.33;34.47;100070.06;5022521;28;20125;-52
2022/04/16 05:18:34;;;;;;;6.82;2.50;;;;;;;9.39;34.28;100072.59;5023085;28;20344;-53
2022/04/16 05:21:05;;;;;;;6.60;2.58;;;;;;;9.43;34.91;100061.22;5022429;28;20112;-53
2022/04/16 05:23:39;;;;;;;10.93;2.33;;;;;;;9.32;34.45;100044.88;5022140;28;20112;-55
2022/04/16 05:26:11;;;;;;;8.20;3.45;;;;;;;9.32;33.89;100049.25;5021681;28;20700;-53
2022/04/16 05:28:44;;;;;;;7.05;2.63;;;;;;;9.45;33.92;100050.78;5023096;28;20352;-54
2022/04/16 05:31:14;;;;;;;7.25;3.00;;;;;;;9.43;34.17;100049.94;5022956;28;20085;-54
2022/04/16 05:36:32;;;;;;;6.32;2.88;;;;;;;9.42;34.98;100051.69;5020944;28;20362;-52
2022/04/16 05:39:03;;;;;;;17.17;3.80;;;;;;;9.41;34.31;100039.53;5021679;28;20080;-54
2022/04/16 05:41:34;;;;;;;35.30;5.53;;;;;;;9.24;34.07;100020.69;5022823;28;20275;-53
2022/04/16 05:44:07;;;;;;;10.45;3.80;;;;;;;9.46;34.11;100042.06;5022778;28;20052;-54
2022/04/16 05:46:38;;;;;;;59.33;6.35;;;;;;;9.36;35.06;100030.94;5021769;28;20074;-53
2022/04/16 05:49:09;;;;;;;14.32;3.17;;;;;;;9.30;34.88;100036.22;5021951;28;20256;-54
2022/04/16 05:51:39;;;;;;;5.85;2.72;;;;;;;9.37;34.63;100032.66;5022268;28;20049;-52
2022/04/16 05:54:10;;;;;;;7.57;2.67;;;;;;;9.22;34.90;100027.66;5022703;28;20045;-53
2022/04/16 05:56:41;;;;;;;8.10;3.08;;;;;;;9.25;34.94;100032.81;5022568;28;20109;-55
2022/04/16 05:59:13;;;;;;;9.55;3.75;;;;;;;9.23;35.54;100029.38;5022817;28;20132;-55
2022/04/16 06:01:45;;;;;;;13.63;5.22;;;;;;;9.20;35.00;100024.22;5024644;28;20061;-53
2022/04/16 06:04:17;;;;;;;7.32;3.30;;;;;;;9.11;35.37;100029.53;5026282;28;20103;-53
2022/04/16 06:06:48;;;;;;;32.75;7.90;;;;;;;9.04;35.41;100024.44;5026205;28;20101;-54
2022/04/16 06:09:18;;;;;;;17.27;8.35;;;;;;;9.00;35.77;100033.16;5026332;28;20068;-55
2022/04/16 06:11:49;;;;;;;14.15;4.47;;;;;;;9.03;35.24;100021.84;5026451;28;20053;-54
2022/04/16 06:14:21;;;;;;;11.75;2.90;;;;;;;8.95;35.87;100028.91;5026451;28;20057;-54
2022/04/16 06:16:52;;;;;;;8.40;3.17;;;;;;;8.87;36.34;100031.63;5026182;28;20071;-53
2022/04/16 06:19:23;;;;;;;10.68;2.97;;;;;;;8.85;36.17;100033.38;5026611;28;20053;-54
2022/04/16 06:21:54;;;;;;;9.98;2.65;;;;;;;8.72;36.60;100037.88;5026259;28;20053;-53
2022/04/16 06:24:24;;;;;;;6.50;2.60;;;;;;;8.69;36.72;100042.28;5026395;28;20058;-53
2022/04/16 06:26:55;;;;;;;21.38;3.63;;;;;;;8.69;36.81;100037.94;5025775;28;20061;-54
2022/04/16 06:29:27;;;;;;;11.32;3.72;;;;;;;8.67;36.92;100034.47;5026049;28;20075;-54
2022/04/16 06:31:58;;;;;;;9.65;3.80;;;;;;;8.67;36.87;100038.81;5026016;28;20061;-54
2022/04/16 06:34:29;;;;;;;13.00;3.20;;;;;;;8.57;37.02;100046.75;5025469;28;20420;-54
2022/04/16 06:36:59;;;;;;;6.72;2.80;;;;;;;8.51;37.35;100041.63;5025907;28;20059;-53
2022/04/16 06:39:30;;;;;;;34.70;5.03;;;;;;;8.47;37.65;100052.09;5025838;28;20378;-53
2022/04/16 06:42:01;;;;;;;32.45;4.18;;;;;;;8.40;37.37;100035.66;5026299;28;20343;-53
2022/04/16 06:44:33;;;;;;;7.32;3.20;;;;;;;8.44;37.12;100042.56;5025757;28;20168;-54
2022/04/16 06:47:04;;;;;;;13.40;2.95;;;;;;;8.27;37.45;100028.84;5025818;28;20050;-53
2022/04/16 06:49:34;;;;;;;24.17;4.35;;;;;;;8.18;37.91;100040.19;5025241;28;20352;-53
2022/04/16 06:52:05;;;;;;;10.82;3.35;;;;;;;8.13;38.16;100037.63;5025332;28;20056;-55
2022/04/16 06:54:36;;;;;;;9.38;4.00;;;;;;;8.09;38.31;100035.94;5025079;28;20068;-53
2022/04/16 06:57:07;;;;;;;10.65;4.10;;;;;;;7.99;38.38;100026.50;5025457;28;20244;-54
2022/04/16 06:59:39;;;;;;;8.77;2.97;;;;;;;7.98;38.39;100043.84;5025559;28;20061;-56
2022/04/16 07:02:12;;;;;;;26.02;5.97;;;;;;;7.87;38.87;100018.81;5024910;28;20045;-54
2022/04/16 07:04:43;;;;;;;18.95;3.97;;;;;;;7.93;38.67;100029.16;5024740;28;20105;-53
2022/04/16 07:07:13;;;;;;;7.50;3.00;;;;;;;7.94;38.85;100041.31;5025168;28;20362;-53
2022/04/16 07:09:45;;;;;;;9.13;2.42;;;;;;;7.86;38.25;100038.78;5025014;28;20275;-53
2022/04/16 07:12:16;;;;;;;17.20;2.65;;;;;;;7.73;38.42;100038.00;5024814;28;20500;-54
2022/04/16 07:14:48;;;;;;;14.88;3.47;;;;;;;7.49;39.08;100033.00;5025441;28;20297;-54
2022/04/16 07:17:22;;;;;;;19.80;3.60;;;;;;;7.40;38.94;100038.28;5024778;28;20054;-54
2022/04/16 07:19:54;;;;;;;7.45;2.42;;;;;;;7.36;39.34;100042.59;5025143;28;20160;-55
2022/04/16 07:22:25;;;;;;;11.23;2.78;;;;;;;7.33;39.37;100048.69;5023763;28;20042;-53
2022/04/16 07:24:56;;;;;;;5.30;3.13;;;;;;;7.20;40.08;100030.59;5022941;28;20054;-53
2022/04/16 07:27:26;;;;;;;16.17;4.00;;;;;;;7.29;40.16;100047.00;5023499;28;20751;-58
2022/04/16 07:29:59;;;;;;;9.25;3.35;;;;;;;7.18;40.12;100054.00;5023288;28;20061;-55
2022/04/16 07:32:30;;;;;;;6.15;2.90;;;;;;;7.05;40.48;100047.16;5022075;28;20079;-54
2022/04/16 07:35:01;;;;;;;7.47;2.95;;;;;;;6.87;40.92;100048.97;5021879;28;20057;-54
2022/04/16 07:37:31;;;;;;;9.75;2.80;;;;;;;6.89;41.61;100052.44;5022749;28;20061;-52
2022/04/16 07:40:02;;;;;;;9.45;3.20;;;;;;;6.90;41.60;100043.75;5023168;28;20055;-53
2022/04/16 07:42:33;;;;;;;7.65;2.90;;;;;;;6.81;41.70;100033.41;5023160;28;20053;-54
2022/04/16 07:45:06;;;;;;;6.63;2.67;;;;;;;6.83;42.13;100044.66;5022748;28;20059;-53
2022/04/16 07:47:37;;;;;;;25.73;4.30;;;;;;;6.80;42.16;100052.47;5022966;28;20525;-53
2022/04/16 07:50:09;;;;;;;6.18;2.80;;;;;;;6.78;42.37;100054.19;5023531;28;20050;-54
2022/04/16 07:52:40;;;;;;;7.53;3.17;;;;;;;6.70;42.46;100050.78;5023947;28;20977;-51
2022/04/16 07:55:16;;;;;;;7.90;3.30;;;;;;;6.61;41.82;100048.19;5023417;28;20057;-54
2022/04/16 07:57:47;;;;;;;29.83;4.60;;;;;;;6.45;42.72;100050.00;5023186;28;20068;-51
2022/04/16 08:00:26;;;;;;;15.02;4.03;;;;;;;6.32;42.12;100059.56;5023710;28;20464;-52
2022/04/16 08:02:57;;;;;;;33.05;5.43;;;;;;;6.24;42.37;100053.50;5023984;28;20099;-53
2022/04/16 08:05:28;;;;;;;15.05;3.67;;;;;;;6.20;41.93;100062.16;5023889;28;20050;-51
2022/04/16 08:08:00;;;;;;;20.15;3.45;;;;;;;6.16;41.77;100057.84;5024505;28;20053;-53
2022/04/16 08:10:31;;;;;;;11.73;3.13;;;;;;;6.02;42.55;100076.88;5023414;28;20049;-52
2022/04/16 08:13:02;;;;;;;12.27;3.45;;;;;;;6.02;42.75;100076.88;5023078;28;20312;-52
2022/04/16 08:15:35;;;;;;;36.00;3.90;;;;;;;5.88;41.92;100065.63;5022542;28;20357;-53
2022/04/16 08:18:07;;;;;;;13.48;3.72;;;;;;;5.65;42.58;100086.38;5021791;28;20354;-54
2022/04/16 08:20:38;;;;;;;9.27;3.10;;;;;;;5.52;42.94;100075.13;5022125;28;20875;-54
2022/04/16 08:23:09;;;;;;;12.88;3.15;;;;;;;5.41;43.30;100074.22;5023757;28;20042;-53
2022/04/16 08:25:46;;;;;;;11.25;2.72;;;;;;;5.31;43.74;100088.03;5023524;28;20066;-49
2022/04/16 08:28:18;;;;;;;7.80;2.90;;;;;;;5.14;44.10;100069.84;5024132;28;20088;-51
2022/04/16 08:30:51;;;;;;;8.75;2.85;;;;;;;5.16;44.16;100092.31;5023846;28;20049;-53
2022/04/16 08:33:22;;;;;;;60.28;4.78;;;;;;;5.00;44.68;100094.88;5023311;28;20096;-52
2022/04/16 08:35:53;;;;;;;46.00;4.68;;;;;;;4.85;45.47;100085.31;5022365;28;20045;-50
2022/04/16 08:38:25;;;;;;;34.75;4.82;;;;;;;4.68;46.71;100088.69;5022010;28;20057;-53
2022/04/16 08:40:59;;;;;;;15.23;4.28;;;;;;;4.71;47.73;100093.88;5022505;28;20034;-49
2022/04/16 08:43:31;;;;;;;18.10;4.90;;;;;;;4.61;48.39;100086.91;5022719;28;20068;-54
2022/04/16 08:46:06;;;;;;;18.85;5.00;;;;;;;4.56;48.44;100088.63;5022831;28;20053;-54
2022/04/16 08:48:41;;;;;;;;;;;;;;;4.44;47.61;100079.09;5027447;28;20083;-53
2022/04/16 08:51:15;;;;;;;10.02;2.80;;;;;;;4.32;47.80;100079.00;5023555;28;20254;-52
2022/04/16 08:53:47;;;;;;;18.70;3.00;;;;;;;4.19;48.09;100078.03;5022706;28;20379;-51
2022/04/16 08:56:22;;;;;;;10.60;3.20;;;;;;;4.09;48.18;100077.16;5022256;28;20214;-50
2022/04/16 08:58:55;;;;;;;12.38;3.22;;;;;;;4.01;48.78;100078.78;5022327;28;20050;-52
2022/04/16 09:01:28;;;;;;;9.20;3.10;;;;;;;4.01;49.40;100077.94;5022787;28;20057;-53
2022/04/16 09:03:59;;;;;;;10.63;3.90;;;;;;;3.88;50.19;100090.75;5022266;28;20053;-53
2022/04/16 09:06:30;;;;;;;7.82;3.25;;;;;;;3.61;51.16;100085.34;5022554;28;20117;-52
2022/04/16 09:09:12;;;;;;;12.45;3.17;;;;;;;3.49;52.99;100093.00;5022228;28;20100;-55
2022/04/16 09:11:49;;;;;;;10.32;3.92;;;;;;;3.30;53.95;100087.66;5022236;28;20136;-53
2022/04/16 09:14:21;;;;;;;10.68;3.28;;;;;;;3.32;54.57;100116.94;5022120;28;20060;-54
2022/04/16 09:16:54;;;;;;;12.50;4.18;;;;;;;3.22;55.65;100104.75;5023596;28;20563;-52
2022/04/16 09:19:31;;;;;;;11.10;4.15;;;;;;;2.97;56.67;100096.78;5022242;28;20045;-53
2022/04/16 09:22:03;;;;;;;9.80;3.22;;;;;;;3.01;57.39;100114.00;5022595;28;20096;-55
2022/04/16 09:24:47;;;;;;;9.82;4.13;;;;;;;2.87;58.20;100115.56;5022526;28;20364;-53
2022/04/16 09:27:18;;;;;;;8.15;3.47;;;;;;;2.88;58.64;100114.72;5022152;28;20049;-54
2022/04/16 09:29:50;;;;;;;13.23;3.85;;;;;;;2.88;59.33;100124.19;5022408;28;20331;-52
2022/04/16 09:32:26;;;;;;;18.20;5.70;;;;;;;2.80;59.86;100126.66;5021953;28;20045;-55
2022/04/16 09:34:57;;;;;;;21.13;4.10;;;;;;;2.75;60.25;100128.31;5022792;28;20340;-53
2022/04/16 09:37:28;;;;;;;9.85;4.05;;;;;;;2.65;60.53;100131.63;5026235;28;20045;-52
2022/04/16 09:40:10;;;;;;;10.07;4.40;;;;;;;2.59;61.18;100138.41;5026356;28;20083;-51
2022/04/16 09:42:41;;;;;;;14.50;6.50;;;;;;;2.53;61.54;100133.16;5026507;28;20059;-53
2022/04/16 09:45:16;;;;;;;13.55;3.80;;;;;;;2.56;61.69;100143.53;5026287;28;20116;-55
2022/04/16 09:47:51;;;;;;;12.20;3.97;;;;;;;2.50;62.11;100146.03;5026110;28;20375;-55
2022/04/16 09:50:23;;;;;;;32.97;8.73;;;;;;;2.45;62.78;100142.53;5025247;28;20113;-54
2022/04/16 09:52:56;;;;;;;17.83;6.43;;;;;;;2.32;63.09;100143.16;5025095;28;20117;-55
2022/04/16 09:55:29;;;;;;;12.70;4.57;;;;;;;2.36;64.19;100150.13;5025368;28;20050;-54
2022/04/16 09:58:02;;;;;;;12.00;5.00;;;;;;;2.35;64.57;100161.28;5024915;28;20065;-54
2022/04/16 10:00:35;;;;;;;10.18;4.15;;;;;;;2.34;64.43;100165.56;5025862;28;20041;-55
2022/04/16 10:03:29;;;;;;;14.50;4.68;;;;;;;2.27;64.33;100155.13;5025770;28;20050;-54
2022/04/16 10:06:03;;;;;;;14.05;4.15;;;;;;;2.25;64.76;100151.69;5025237;28;20073;-54
2022/04/16 10:08:36;;;;;;;8.95;4.43;;;;;;;2.29;65.18;100158.59;5025070;28;20103;-53
2022/04/16 10:11:08;;;;;;;11.30;4.40;;;;;;;2.26;66.21;100159.41;5025935;28;20057;-56
2022/04/16 10:13:48;;;;;;;8.85;4.13;;;;;;;2.14;66.66;100143.75;5026893;28;20055;-54
2022/04/16 10:16:27;;;;;;;31.67;13.00;;;;;;;2.18;67.31;100160.16;5026269;28;20054;-56
2022/04/16 10:19:00;;;;;;;22.38;10.25;;;;;;;2.17;67.82;100169.56;5026265;28;20112;-54
2022/04/16 10:21:36;;;;;;;37.60;11.65;;;;;;;2.06;68.57;100177.13;5025715;28;20073;-53
2022/04/16 10:24:07;;;;;;;15.20;6.95;;;;;;;2.09;68.93;100174.59;5025647;28;20112;-54
2022/04/16 10:26:43;;;;;;;9.10;4.70;;;;;;;1.79;69.02;100130.31;5023907;28;20987;-53
2022/04/16 10:29:21;;;;;;;20.75;4.50;;;;;;;2.04;69.43;100178.81;5025200;28;20063;-53
2022/04/16 10:31:55;;;;;;;12.10;5.10;;;;;;;2.03;69.24;100181.38;5023670;28;20058;-54
2022/04/16 10:34:35;;;;;;;14.23;4.97;;;;;;;1.81;69.63;100164.69;5023867;28;20077;-54
2022/04/16 10:37:09;;;;;;;15.57;5.10;;;;;;;1.94;70.03;100194.97;5024080;28;20132;-52
2022/04/16 10:39:48;;;;;;;16.85;4.75;;;;;;;1.88;70.22;100192.31;5023129;28;20386;-54
2022/04/16 10:42:19;;;;;;;12.55;5.13;;;;;;;1.84;70.55;100185.34;5024581;28;20042;-52
2022/04/16 10:45:11;;;;;;;25.25;5.65;;;;;;;1.88;70.94;100192.31;5026122;28;20306;-53
2022/04/16 10:47:43;;;;;;;9.93;4.25;;;;;;;1.86;70.96;100196.56;5026226;28;20053;-55
2022/04/16 10:50:21;;;;;;;9.05;5.40;;;;;;;1.91;70.65;100202.66;5026644;28;20098;-52
2022/04/16 10:52:56;;;;;;;12.23;4.38;;;;;;;1.84;70.95;100195.66;5026035;28;20042;-53
2022/04/16 10:55:32;;;;;;;7.93;4.53;;;;;;;1.83;71.33;100206.81;5026117;28;20057;-54
2022/04/16 10:58:04;;;;;;;11.05;4.72;;;;;;;1.71;71.75;100203.16;5024918;28;20083;-53
2022/04/16 11:00:45;;;;;;;13.95;5.45;;;;;;;1.79;71.56;100202.44;5025509;28;20050;-53
2022/04/16 11:03:18;;;;;;;30.40;5.70;;;;;;;1.72;71.96;100204.91;5024391;28;20084;-54
2022/04/16 11:06:01;;;;;;;12.43;7.35;;;;;;;1.76;71.81;100203.25;5024802;28;20060;-54
2022/04/16 11:08:36;;;;;;;17.23;5.93;;;;;;;1.73;72.02;100209.22;5024390;28;20046;-54
2022/04/16 11:11:09;;;;;;;11.10;5.40;;;;;;;1.68;72.28;100200.53;5024557;28;20467;-55
2022/04/16 11:13:41;;;;;;;18.50;6.35;;;;;;;1.67;72.64;100213.38;5024684;28;20101;-53
2022/04/16 11:16:12;;;;;;;13.30;5.68;;;;;;;1.56;73.06;100204.59;5025128;28;20045;-55
2022/04/16 11:18:44;;;;;;;11.50;5.70;;;;;;;1.64;73.10;100203.88;5024737;28;20054;-54
2022/04/16 11:21:19;;;;;;;17.75;6.00;;;;;;;1.70;73.00;100219.47;5022657;28;20057;-55
2022/04/16 11:23:51;;;;;;;11.80;6.72;;;;;;;1.62;73.63;100205.59;5023785;28;20049;-55
2022/04/16 11:34:54;;;;;;;15.00;7.05;;;;;;;1.73;74.22;100219.50;5023235;28;20053;-51
2022/04/16 11:37:33;;;;;;;13.65;7.40;;;;;;;1.69;74.40;100217.72;5023271;28;20085;-53
2022/04/16 11:40:07;;;;;;;18.48;9.23;;;;;;;1.66;74.69;100222.81;5021462;28;20113;-53
2022/04/16 11:42:38;;;;;;;24.98;9.07;;;;;;;1.65;75.03;100210.78;5024185;28;20049;-53
2022/04/16 11:45:10;;;;;;;20.95;8.20;;;;;;;1.57;74.65;100212.31;5024280;28;20354;-54
2022/04/16 11:47:40;;;;;;;15.73;7.30;;;;;;;1.54;75.07;100206.25;5025139;28;20088;-54
2022/04/16 11:50:14;;;;;;;11.88;6.30;;;;;;;1.46;74.93;100193.25;5024535;28;20122;-53
2022/04/16 11:52:51;;;;;;;13.00;6.25;;;;;;;1.44;75.17;100197.47;5023613;28;20072;-54
2022/04/16 11:55:23;;;;;;;11.27;6.28;;;;;;;1.47;75.18;100200.09;5023793;28;20056;-54
2022/04/16 11:57:54;;;;;;;16.83;7.22;;;;;;;1.51;74.97;100207.06;5023471;28;20160;-54
2022/04/16 12:00:26;;;;;;;12.32;6.70;;;;;;;1.47;74.60;100201.00;5023073;28;20088;-54
2022/04/16 12:02:57;;;;;;;14.55;6.53;;;;;;;1.34;74.97;100204.16;5024852;28;20079;-52
2022/04/16 12:05:30;;;;;;;13.45;6.95;;;;;;;1.49;74.52;100221.63;5024291;28;20064;-54
2022/04/16 12:08:04;;;;;;;25.60;7.63;;;;;;;1.52;74.55;100219.09;5024125;28;20049;-54
2022/04/16 12:10:37;;;;;;;13.82;6.90;;;;;;;1.63;74.44;100220.19;5024541;28;20358;-53
2022/04/16 12:13:12;;;;;;;12.55;6.38;;;;;;;1.71;74.04;100226.34;5024028;28;20050;-53
2022/04/16 12:15:44;;;;;;;19.42;7.63;;;;;;;1.77;73.42;100230.72;5024319;28;20061;-52